This is the latest recevied weather packets stored in our database for station/object AA4XD. If no packets are shown the sender has not sent any weather packets the latest 10 day(s).
| Time | Temp. | Humidity | Pressure | Rain* | Wind** | Luminosity | Snow |
|---|---|---|---|---|---|---|---|
| 1777418416 | 28.89° C | 56% | 1015.6 hPa | 0 mm | - | 68 W/m² | - |
| 1777418112 | 29.44° C | 55% | 1015.3 hPa | 0 mm | - | 74 W/m² | - |
| 1777417809 | 29.44° C | 54% | 1015.4 hPa | 0 mm | - | 73 W/m² | - |
| 1777417503 | 30° C | 53% | 1015.5 hPa | 0 mm | - | 83 W/m² | - |
| 1777417201 | 30° C | 52% | 1015.5 hPa | 0 mm | - | 91 W/m² | - |
| 1777416896 | 30.56° C | 51% | 1015.3 hPa | 0 mm | - | 97 W/m² | - |
| 1777416591 | 30.56° C | 50% | 1015.4 hPa | 0 mm | - | 103 W/m² | - |
| 1777416288 | 31.11° C | 44% | 1015.1 hPa | 0 mm | - | 105 W/m² | - |
| 1777415987 | 31.11° C | 41% | 1015.1 hPa | 0 mm | - | 98 W/m² | - |
| 1777415683 | 30.56° C | 43% | 1015.2 hPa | 0 mm | - | 108 W/m² | - |
| 1777415379 | 30.56° C | 47% | 1015.3 hPa | 0 mm | - | 126 W/m² | - |
| 1777415079 | 30.56° C | 46% | 1015.5 hPa | 0 mm | - | 88 W/m² | - |
| 1777414773 | 30° C | 47% | 1015.9 hPa | 0 mm | - | 80 W/m² | - |
| 1777414470 | 30.56° C | 47% | 1015.6 hPa | 0 mm | - | 71 W/m² | - |
| 1777414168 | 30.56° C | 45% | 1015.8 hPa | 0 mm | - | 66 W/m² | - |
| 1777413865 | 31.11° C | 44% | 1015.9 hPa | 0 mm | - | 76 W/m² | - |
| 1777413560 | 31.67° C | 41% | 1015.9 hPa | 0 mm | - | 96 W/m² | - |
| 1777413256 | 32.78° C | 38% | 1015.8 hPa | 0 mm | - | 97 W/m² | - |
| 1777412952 | 32.78° C | 39% | 1015.7 hPa | 0 mm | - | 144 W/m² | - |
| 1777412651 | 33.33° C | 37% | 1015.7 hPa | 0 mm | - | 166 W/m² | - |
| 1777412349 | 33.33° C | 38% | 1015.6 hPa | 0 mm | - | 454 W/m² | - |
| 1777412048 | 33.33° C | 39% | 1015.9 hPa | 0 mm | - | 465 W/m² | - |
| 1777411744 | 32.22° C | 41% | 1015.6 hPa | 0 mm | - | 464 W/m² | - |
| 1777411438 | 31.67° C | 44% | 1015.7 hPa | 0 mm | - | 180 W/m² | - |
| 1777411132 | 32.78° C | 42% | 1016 hPa | 0 mm | - | 121 W/m² | - |
* Rain latest hour (hover to see other rain measurements)
** Current wind speed in m/s (hover to see current wind gust speed)